Reno, Pennsylvania
Current Conditions -  °F | °C
As of 8:55 PM on Monday 24 Nov 2014 (Local Time) from KFKL Reporting Station
Broken Clouds Broken Clouds  
Wind Chill:   Ceiling: 3300
Heat Index:   Visibility: 10mi
Dew Point: -1°   Wind: 18mph
Humidity: 57%   Direction: 250°WSW
Pressure: 29.73"   Gusts: 25mph
Location:  41.41°N, 79.75°W
Report Text: KFKL 250155Z AUTO 25016G22KT 10SM BKN033 07/M01 A2973 RMK AO1
Loading
Personal Weather Stations






























Interactive Weather Map New forecast layout! Learn more

10-Day Weather Forecast

Advertisements
Track Severe Weather on mobile